Pueblo, CO

10:15 AM MDT on July 07, 2015 (GMT -0600)
Belmont - Boomer Weather | | Change Station
CLOSE
Current Station
Personal Weather Station
Location: Pueblo, CO
Elevation: 4869 ft
Nearby Weather Stations
Active Advisory: Flood Warning Active Notice: Public Information Statement

Elev 4869 ft 38.30 °N, 104.58 °W | Updated 7 seconds ago

Haze
Haze
60.7 °F
Feels Like 60.7 °F
N
14.0
Wind Variable Wind from ENE
Gusts 16.0 mph

Today
High -- | Low -- °F
--% Chance of Precip.
Yesterday
High -- | Low -- °F
Precip. -- in
5:41 AM 8:24 PM
Waning Gibbous, 63% visible
Pressure 30.10 in
Visibility 2.0 miles
Clouds Overcast 3600 ft
Dew Point 54 °F
Humidity 79%
Rainfall 0.02 in
Snow Depth Not available.
UV 1.3 out of 12
Pollen 2.60 out of 12
Air Quality Not available.
Flu Activity Not available.
METAR KPUB 071553Z 11011KT 2SM HZ OVC036 18/12 A3024 RMK AO2 SLP192 T01780117

More Conditions Fewer Conditions

Pressure 30.10 in
Visibility 2.0 miles
Clouds Overcast 3600 ft
Dew Point 54 °F
Humidity 79%
Rainfall 0.02 in
Snow Depth Not available.
UV 1.3 out of 12
Pollen 2.60 out of 12
Air Quality Not available.
Flu Activity Not available.
METAR KPUB 071553Z 11011KT 2SM HZ OVC036 18/12 A3024 RMK AO2 SLP192 T01780117

More Conditions Fewer Conditions

10-Day Weather Forecast

×

Almanac

Astronomy

Jul. 07, 2015 Rise Set
Actual Time
Civil Twilight
Nautical Twilight
Astronomical Twilight
Moon
Length of Visible Light
Length of Day
Tomorrow will be .
, % of the Moon is Illuminated

Today's Extremes

State Highs State Lows

Community

WunderPhotos

Upload Photos

1,835,829 photos uploaded!

WunderBlogs® & News

Nearby

Air Quality

  Air Quality AQ Index Pollutant
Not available.

Snow Depth

Station Depth Elevation

Earthquake Activity

City Distance Mag. Time & Date
Minimum magnitude displayed is 2.5.

Coastal Water Temperatures

Place Temperature

Stations

Nearby Weather Stations

Station Location Temp. Windchill Dew Point Humidity Wind Precip. Elev Updated Type
                   
Flood Warning
Statement as of 7:33 AM MDT on July 07, 2015

The Flood Warning continues for
the Arkansas River near Avondale.
* Until Thursday afternoon... or until the warning is cancelled.
* At 7:15 am Tuesday the stage was 7.4 feet.
* Flood stage is 7.0 feet.
* Minor flooding is occurring and minor flooding is forecast.
* Forecast... the river will continue rising to near 7.7 feet by
midmorning tomorrow. The river will fall below flood stage after
midnight Thursday morning.
* Impact... at 7.0 feet... minor lowland flooding occurs near Avondale.


Lat... Lon 3829 10441 3829 10434 3827 10425 3820 10425
      3822 10434 3822 10441